Terminal Aerodrome Forecast
Issued by NWS Cleveland, OH

Home | Current Version | Previous Version | Graphics & Text | Print | Product List | Glossary Off
Versions: 1 2 3 4 5 6 7 8 9 10 11 12 13 14 15 16

000
FTUS41 KCLE 091130
TAFTOL
TAF
KTOL 091130Z 0912/1012 26014KT P6SM SCT020 BKN040
      TEMPO 0912/0916 5SM -SHSN BKN020
     FM091800 26012KT P6SM -SN BKN035
      TEMPO 0918/0922 3SM -SHSN
     FM100300 26009KT P6SM BKN025=

USA.gov is the U.S. government's official web portal to all federal, state and local government web resources and services.